sensor_id;sensor_type;location;lat;lon;timestamp;P1;durP1;ratioP1;P2;durP2;ratioP2
72891;SDS011;61032;50.782;6.818;2022-11-18T00:00:33;3.95;;;1.55;;
72891;SDS011;61032;50.782;6.818;2022-11-18T00:01:33;3.78;;;1.73;;
72891;SDS011;61032;50.782;6.818;2022-11-18T00:02:33;4.22;;;1.63;;
72891;SDS011;61032;50.782;6.818;2022-11-18T00:03:34;4.10;;;1.50;;
72891;SDS011;61032;50.782;6.818;2022-11-18T00:04:35;2.83;;;1.52;;
72891;SDS011;61032;50.782;6.818;2022-11-18T00:05:35;3.65;;;1.75;;
72891;SDS011;61032;50.782;6.818;2022-11-18T00:06:36;3.70;;;1.40;;
72891;SDS011;61032;50.782;6.818;2022-11-18T00:07:36;3.22;;;1.65;;
72891;SDS011;61032;50.782;6.818;2022-11-18T00:08:36;3.35;;;2.10;;
72891;SDS011;61032;50.782;6.818;2022-11-18T00:09:37;3.67;;;1.40;;
72891;SDS011;61032;50.782;6.818;2022-11-18T00:10:37;5.03;;;1.55;;
72891;SDS011;61032;50.782;6.818;2022-11-18T00:11:38;2.80;;;1.98;;
72891;SDS011;61032;50.782;6.818;2022-11-18T00:12:57;2.80;;;1.92;;
72891;SDS011;61032;50.782;6.818;2022-11-18T00:14:17;2.63;;;1.45;;
72891;SDS011;61032;50.782;6.818;2022-11-18T00:15:22;5.22;;;1.90;;
72891;SDS011;61032;50.782;6.818;2022-11-18T00:16:22;2.72;;;1.42;;
72891;SDS011;61032;50.782;6.818;2022-11-18T00:17:22;3.17;;;2.17;;
72891;SDS011;61032;50.782;6.818;2022-11-18T00:18:23;4.18;;;2.17;;
72891;SDS011;61032;50.782;6.818;2022-11-18T00:19:24;3.30;;;1.83;;
72891;SDS011;61032;50.782;6.818;2022-11-18T00:20:26;3.15;;;2.03;;
72891;SDS011;61032;50.782;6.818;2022-11-18T00:21:27;6.25;;;1.90;;
72891;SDS011;61032;50.782;6.818;2022-11-18T00:22:27;3.97;;;1.90;;
72891;SDS011;61032;50.782;6.818;2022-11-18T00:23:27;2.22;;;1.42;;
72891;SDS011;61032;50.782;6.818;2022-11-18T00:24:28;4.78;;;1.48;;
72891;SDS011;61032;50.782;6.818;2022-11-18T00:25:29;3.60;;;1.45;;
72891;SDS011;61032;50.782;6.818;2022-11-18T00:26:29;4.68;;;1.60;;
72891;SDS011;61032;50.782;6.818;2022-11-18T00:27:29;4.10;;;2.40;;
72891;SDS011;61032;50.782;6.818;2022-11-18T00:28:30;5.07;;;2.15;;
72891;SDS011;61032;50.782;6.818;2022-11-18T00:29:31;3.63;;;1.67;;
72891;SDS011;61032;50.782;6.818;2022-11-18T00:30:31;8.63;;;2.20;;
72891;SDS011;61032;50.782;6.818;2022-11-18T00:31:32;5.07;;;1.65;;
72891;SDS011;61032;50.782;6.818;2022-11-18T00:32:32;3.78;;;1.60;;
72891;SDS011;61032;50.782;6.818;2022-11-18T00:33:33;4.85;;;1.90;;
72891;SDS011;61032;50.782;6.818;2022-11-18T00:34:35;7.07;;;2.22;;
72891;SDS011;61032;50.782;6.818;2022-11-18T00:35:36;4.05;;;2.00;;
72891;SDS011;61032;50.782;6.818;2022-11-18T00:36:36;2.30;;;1.98;;
72891;SDS011;61032;50.782;6.818;2022-11-18T00:37:36;3.40;;;1.63;;
72891;SDS011;61032;50.782;6.818;2022-11-18T00:38:37;2.15;;;1.50;;
72891;SDS011;61032;50.782;6.818;2022-11-18T00:39:38;2.78;;;1.27;;
72891;SDS011;61032;50.782;6.818;2022-11-18T00:40:38;4.45;;;1.35;;
72891;SDS011;61032;50.782;6.818;2022-11-18T00:41:38;2.63;;;1.67;;
72891;SDS011;61032;50.782;6.818;2022-11-18T00:42:58;3.00;;;1.13;;
72891;SDS011;61032;50.782;6.818;2022-11-18T00:43:58;2.80;;;1.67;;
72891;SDS011;61032;50.782;6.818;2022-11-18T00:44:58;3.47;;;1.60;;
72891;SDS011;61032;50.782;6.818;2022-11-18T00:45:58;2.30;;;1.80;;
72891;SDS011;61032;50.782;6.818;2022-11-18T00:46:59;3.20;;;1.50;;
72891;SDS011;61032;50.782;6.818;2022-11-18T00:47:59;4.05;;;1.30;;
72891;SDS011;61032;50.782;6.818;2022-11-18T00:48:59;2.00;;;1.00;;
72891;SDS011;61032;50.782;6.818;2022-11-18T00:49:59;2.55;;;1.48;;
72891;SDS011;61032;50.782;6.818;2022-11-18T00:51:07;2.90;;;1.33;;
72891;SDS011;61032;50.782;6.818;2022-11-18T00:52:13;3.50;;;1.75;;
72891;SDS011;61032;50.782;6.818;2022-11-18T00:53:13;3.25;;;1.45;;
72891;SDS011;61032;50.782;6.818;2022-11-18T00:54:14;2.92;;;1.00;;
72891;SDS011;61032;50.782;6.818;2022-11-18T00:55:14;4.93;;;1.80;;
72891;SDS011;61032;50.782;6.818;2022-11-18T00:56:14;2.38;;;1.52;;
72891;SDS011;61032;50.782;6.818;2022-11-18T00:57:15;4.80;;;2.35;;
72891;SDS011;61032;50.782;6.818;2022-11-18T00:58:15;4.70;;;1.67;;
72891;SDS011;61032;50.782;6.818;2022-11-18T00:59:16;3.28;;;1.48;;
72891;SDS011;61032;50.782;6.818;2022-11-18T01:00:16;3.72;;;1.55;;
72891;SDS011;61032;50.782;6.818;2022-11-18T01:01:16;4.15;;;1.73;;
72891;SDS011;61032;50.782;6.818;2022-11-18T01:02:17;4.85;;;1.55;;
72891;SDS011;61032;50.782;6.818;2022-11-18T01:03:18;4.13;;;1.77;;
72891;SDS011;61032;50.782;6.818;2022-11-18T01:04:19;2.83;;;1.13;;
72891;SDS011;61032;50.782;6.818;2022-11-18T01:05:19;2.30;;;1.30;;
72891;SDS011;61032;50.782;6.818;2022-11-18T01:06:20;3.20;;;1.60;;
72891;SDS011;61032;50.782;6.818;2022-11-18T01:07:20;3.80;;;1.48;;
72891;SDS011;61032;50.782;6.818;2022-11-18T01:08:20;3.75;;;1.15;;
72891;SDS011;61032;50.782;6.818;2022-11-18T01:09:21;3.75;;;1.75;;
72891;SDS011;61032;50.782;6.818;2022-11-18T01:10:21;5.35;;;1.67;;
72891;SDS011;61032;50.782;6.818;2022-11-18T01:11:22;3.85;;;1.77;;
72891;SDS011;61032;50.782;6.818;2022-11-18T01:12:41;1.60;;;0.93;;
72891;SDS011;61032;50.782;6.818;2022-11-18T01:14:10;3.40;;;1.60;;
72891;SDS011;61032;50.782;6.818;2022-11-18T01:15:11;1.65;;;1.55;;
72891;SDS011;61032;50.782;6.818;2022-11-18T01:16:11;2.67;;;1.60;;
72891;SDS011;61032;50.782;6.818;2022-11-18T01:17:17;4.47;;;2.08;;
72891;SDS011;61032;50.782;6.818;2022-11-18T01:18:18;2.10;;;1.48;;
72891;SDS011;61032;50.782;6.818;2022-11-18T01:19:22;5.85;;;1.60;;
72891;SDS011;61032;50.782;6.818;2022-11-18T01:20:23;3.42;;;1.25;;
72891;SDS011;61032;50.782;6.818;2022-11-18T01:21:23;2.22;;;1.15;;
72891;SDS011;61032;50.782;6.818;2022-11-18T01:22:24;4.85;;;1.50;;
72891;SDS011;61032;50.782;6.818;2022-11-18T01:23:24;5.60;;;1.38;;
72891;SDS011;61032;50.782;6.818;2022-11-18T01:24:24;3.33;;;1.33;;
72891;SDS011;61032;50.782;6.818;2022-11-18T01:25:25;2.35;;;1.33;;
72891;SDS011;61032;50.782;6.818;2022-11-18T01:26:25;2.95;;;1.25;;
72891;SDS011;61032;50.782;6.818;2022-11-18T01:27:26;2.80;;;1.02;;
72891;SDS011;61032;50.782;6.818;2022-11-18T01:28:26;4.50;;;1.65;;
72891;SDS011;61032;50.782;6.818;2022-11-18T01:29:26;4.78;;;2.08;;
72891;SDS011;61032;50.782;6.818;2022-11-18T01:30:27;3.15;;;1.85;;
72891;SDS011;61032;50.782;6.818;2022-11-18T01:31:27;3.40;;;1.48;;
72891;SDS011;61032;50.782;6.818;2022-11-18T01:32:27;4.65;;;1.45;;
72891;SDS011;61032;50.782;6.818;2022-11-18T01:33:28;4.00;;;1.40;;
72891;SDS011;61032;50.782;6.818;2022-11-18T01:34:28;3.95;;;1.50;;
72891;SDS011;61032;50.782;6.818;2022-11-18T01:35:32;5.10;;;1.90;;
72891;SDS011;61032;50.782;6.818;2022-11-18T01:36:34;2.42;;;1.48;;
72891;SDS011;61032;50.782;6.818;2022-11-18T01:37:34;4.63;;;1.63;;
72891;SDS011;61032;50.782;6.818;2022-11-18T01:38:34;3.58;;;1.75;;
72891;SDS011;61032;50.782;6.818;2022-11-18T01:39:35;4.32;;;1.48;;
72891;SDS011;61032;50.782;6.818;2022-11-18T01:40:36;3.65;;;1.67;;
72891;SDS011;61032;50.782;6.818;2022-11-18T01:41:37;3.45;;;1.83;;
72891;SDS011;61032;50.782;6.818;2022-11-18T01:42:37;3.58;;;1.77;;
72891;SDS011;61032;50.782;6.818;2022-11-18T01:43:53;3.42;;;1.55;;
72891;SDS011;61032;50.782;6.818;2022-11-18T01:45:01;2.35;;;1.48;;
72891;SDS011;61032;50.782;6.818;2022-11-18T01:46:22;5.88;;;1.45;;
72891;SDS011;61032;50.782;6.818;2022-11-18T01:47:25;2.90;;;1.60;;
72891;SDS011;61032;50.782;6.818;2022-11-18T01:48:30;3.13;;;1.30;;
72891;SDS011;61032;50.782;6.818;2022-11-18T01:49:33;4.95;;;1.55;;
72891;SDS011;61032;50.782;6.818;2022-11-18T01:50:34;3.03;;;1.50;;
72891;SDS011;61032;50.782;6.818;2022-11-18T01:51:44;5.80;;;1.52;;
72891;SDS011;61032;50.782;6.818;2022-11-18T01:52:49;3.58;;;1.52;;
72891;SDS011;61032;50.782;6.818;2022-11-18T01:53:58;2.70;;;1.40;;
72891;SDS011;61032;50.782;6.818;2022-11-18T01:55:13;4.50;;;1.30;;
72891;SDS011;61032;50.782;6.818;2022-11-18T01:56:18;5.00;;;1.60;;
72891;SDS011;61032;50.782;6.818;2022-11-18T01:57:22;3.17;;;1.27;;
72891;SDS011;61032;50.782;6.818;2022-11-18T01:58:28;4.38;;;1.20;;
72891;SDS011;61032;50.782;6.818;2022-11-18T01:59:34;6.05;;;1.77;;
72891;SDS011;61032;50.782;6.818;2022-11-18T02:00:36;3.80;;;1.67;;
72891;SDS011;61032;50.782;6.818;2022-11-18T02:01:38;3.15;;;1.50;;
72891;SDS011;61032;50.782;6.818;2022-11-18T02:02:38;3.53;;;1.55;;
72891;SDS011;61032;50.782;6.818;2022-11-18T02:03:39;2.28;;;1.58;;
72891;SDS011;61032;50.782;6.818;2022-11-18T02:04:43;5.15;;;1.10;;
72891;SDS011;61032;50.782;6.818;2022-11-18T02:05:47;2.28;;;1.17;;
72891;SDS011;61032;50.782;6.818;2022-11-18T02:07:50;4.25;;;1.90;;
72891;SDS011;61032;50.782;6.818;2022-11-18T02:08:50;2.95;;;1.45;;
72891;SDS011;61032;50.782;6.818;2022-11-18T02:09:51;3.08;;;1.52;;
72891;SDS011;61032;50.782;6.818;2022-11-18T02:10:52;3.38;;;1.45;;
72891;SDS011;61032;50.782;6.818;2022-11-18T02:11:52;4.05;;;1.92;;
72891;SDS011;61032;50.782;6.818;2022-11-18T02:12:53;2.95;;;1.35;;
72891;SDS011;61032;50.782;6.818;2022-11-18T02:13:56;2.90;;;1.60;;
72891;SDS011;61032;50.782;6.818;2022-11-18T02:14:57;8.93;;;2.42;;
72891;SDS011;61032;50.782;6.818;2022-11-18T02:18:40;3.60;;;1.73;;
72891;SDS011;61032;50.782;6.818;2022-11-18T02:20:46;3.92;;;1.90;;
72891;SDS011;61032;50.782;6.818;2022-11-18T02:26:27;4.82;;;1.77;;
72891;SDS011;61032;50.782;6.818;2022-11-18T02:29:29;3.72;;;1.67;;
72891;SDS011;61032;50.782;6.818;2022-11-18T02:32:23;3.70;;;1.25;;
72891;SDS011;61032;50.782;6.818;2022-11-18T02:33:51;3.33;;;1.98;;
72891;SDS011;61032;50.782;6.818;2022-11-18T02:36:13;3.25;;;1.55;;
72891;SDS011;61032;50.782;6.818;2022-11-18T02:38:44;2.38;;;1.40;;
72891;SDS011;61032;50.782;6.818;2022-11-18T02:39:56;3.63;;;1.30;;
72891;SDS011;61032;50.782;6.818;2022-11-18T02:41:02;7.25;;;1.95;;
72891;SDS011;61032;50.782;6.818;2022-11-18T02:42:08;5.00;;;1.20;;
72891;SDS011;61032;50.782;6.818;2022-11-18T02:43:44;2.45;;;1.80;;
72891;SDS011;61032;50.782;6.818;2022-11-18T02:44:41;2.85;;;1.30;;
72891;SDS011;61032;50.782;6.818;2022-11-18T02:45:47;5.05;;;1.88;;
72891;SDS011;61032;50.782;6.818;2022-11-18T02:46:51;3.00;;;1.40;;
72891;SDS011;61032;50.782;6.818;2022-11-18T02:47:54;1.88;;;1.33;;
72891;SDS011;61032;50.782;6.818;2022-11-18T02:48:58;2.60;;;1.10;;
72891;SDS011;61032;50.782;6.818;2022-11-18T02:50:02;3.10;;;1.60;;
72891;SDS011;61032;50.782;6.818;2022-11-18T02:51:06;5.55;;;1.33;;
72891;SDS011;61032;50.782;6.818;2022-11-18T02:52:10;2.92;;;1.60;;
72891;SDS011;61032;50.782;6.818;2022-11-18T02:53:13;5.82;;;2.00;;
72891;SDS011;61032;50.782;6.818;2022-11-18T02:54:17;2.58;;;1.65;;
72891;SDS011;61032;50.782;6.818;2022-11-18T02:55:20;2.05;;;1.48;;
72891;SDS011;61032;50.782;6.818;2022-11-18T02:56:23;4.13;;;1.80;;
72891;SDS011;61032;50.782;6.818;2022-11-18T02:57:25;4.20;;;1.90;;
72891;SDS011;61032;50.782;6.818;2022-11-18T02:58:29;4.78;;;1.98;;
72891;SDS011;61032;50.782;6.818;2022-11-18T02:59:29;2.45;;;1.65;;
72891;SDS011;61032;50.782;6.818;2022-11-18T03:00:30;3.47;;;1.33;;
72891;SDS011;61032;50.782;6.818;2022-11-18T03:01:32;3.38;;;2.17;;
72891;SDS011;61032;50.782;6.818;2022-11-18T03:02:41;4.22;;;2.00;;
72891;SDS011;61032;50.782;6.818;2022-11-18T03:03:43;3.80;;;1.83;;
72891;SDS011;61032;50.782;6.818;2022-11-18T03:04:45;5.88;;;2.17;;
72891;SDS011;61032;50.782;6.818;2022-11-18T03:05:48;3.22;;;2.10;;
72891;SDS011;61032;50.782;6.818;2022-11-18T03:07:04;4.32;;;1.92;;
72891;SDS011;61032;50.782;6.818;2022-11-18T03:08:24;6.07;;;2.17;;
72891;SDS011;61032;50.782;6.818;2022-11-18T03:09:35;4.57;;;2.58;;
72891;SDS011;61032;50.782;6.818;2022-11-18T03:10:39;2.55;;;1.80;;
72891;SDS011;61032;50.782;6.818;2022-11-18T03:16:37;4.03;;;1.75;;
72891;SDS011;61032;50.782;6.818;2022-11-18T03:20:29;2.83;;;1.58;;
72891;SDS011;61032;50.782;6.818;2022-11-18T03:21:36;2.70;;;1.67;;
72891;SDS011;61032;50.782;6.818;2022-11-18T03:22:43;3.42;;;1.70;;
72891;SDS011;61032;50.782;6.818;2022-11-18T03:26:37;4.22;;;1.52;;
72891;SDS011;61032;50.782;6.818;2022-11-18T03:28:57;3.72;;;2.17;;
72891;SDS011;61032;50.782;6.818;2022-11-18T03:30:05;4.15;;;1.80;;
72891;SDS011;61032;50.782;6.818;2022-11-18T03:32:21;7.18;;;2.45;;
72891;SDS011;61032;50.782;6.818;2022-11-18T03:33:27;4.13;;;1.60;;
72891;SDS011;61032;50.782;6.818;2022-11-18T03:34:37;4.18;;;1.70;;
72891;SDS011;61032;50.782;6.818;2022-11-18T03:36:46;5.05;;;2.03;;
72891;SDS011;61032;50.782;6.818;2022-11-18T03:37:49;2.85;;;1.40;;
72891;SDS011;61032;50.782;6.818;2022-11-18T03:38:55;4.68;;;2.00;;
72891;SDS011;61032;50.782;6.818;2022-11-18T03:40:02;2.95;;;1.60;;
72891;SDS011;61032;50.782;6.818;2022-11-18T03:41:10;6.65;;;2.00;;
72891;SDS011;61032;50.782;6.818;2022-11-18T03:42:18;5.93;;;1.63;;
72891;SDS011;61032;50.782;6.818;2022-11-18T03:43:25;2.00;;;1.58;;
72891;SDS011;61032;50.782;6.818;2022-11-18T03:44:29;3.20;;;1.52;;
72891;SDS011;61032;50.782;6.818;2022-11-18T03:45:34;4.13;;;1.60;;
72891;SDS011;61032;50.782;6.818;2022-11-18T03:46:49;2.65;;;1.40;;
72891;SDS011;61032;50.782;6.818;2022-11-18T03:47:54;4.40;;;1.73;;
72891;SDS011;61032;50.782;6.818;2022-11-18T03:49:00;2.97;;;1.67;;
72891;SDS011;61032;50.782;6.818;2022-11-18T03:50:03;5.47;;;1.67;;
72891;SDS011;61032;50.782;6.818;2022-11-18T03:51:13;4.07;;;2.35;;
72891;SDS011;61032;50.782;6.818;2022-11-18T03:52:19;3.67;;;1.88;;
72891;SDS011;61032;50.782;6.818;2022-11-18T03:53:25;6.65;;;1.75;;
72891;SDS011;61032;50.782;6.818;2022-11-18T03:54:29;4.55;;;1.98;;
72891;SDS011;61032;50.782;6.818;2022-11-18T03:55:34;3.70;;;1.85;;
72891;SDS011;61032;50.782;6.818;2022-11-18T03:56:40;10.73;;;1.85;;
72891;SDS011;61032;50.782;6.818;2022-11-18T03:57:58;3.50;;;1.70;;
72891;SDS011;61032;50.782;6.818;2022-11-18T03:59:09;2.55;;;1.35;;
72891;SDS011;61032;50.782;6.818;2022-11-18T04:00:14;3.83;;;2.13;;
72891;SDS011;61032;50.782;6.818;2022-11-18T04:01:25;4.32;;;1.75;;
72891;SDS011;61032;50.782;6.818;2022-11-18T04:02:32;2.95;;;1.60;;
72891;SDS011;61032;50.782;6.818;2022-11-18T04:03:33;3.70;;;1.90;;
72891;SDS011;61032;50.782;6.818;2022-11-18T04:04:33;5.57;;;2.35;;
72891;SDS011;61032;50.782;6.818;2022-11-18T04:05:35;4.32;;;1.30;;
72891;SDS011;61032;50.782;6.818;2022-11-18T04:06:40;2.38;;;1.10;;
72891;SDS011;61032;50.782;6.818;2022-11-18T04:07:49;4.18;;;1.92;;
72891;SDS011;61032;50.782;6.818;2022-11-18T04:08:53;4.32;;;1.55;;
72891;SDS011;61032;50.782;6.818;2022-11-18T04:09:58;4.93;;;2.25;;
72891;SDS011;61032;50.782;6.818;2022-11-18T04:11:10;2.88;;;1.95;;
72891;SDS011;61032;50.782;6.818;2022-11-18T04:12:41;2.42;;;2.05;;
72891;SDS011;61032;50.782;6.818;2022-11-18T04:13:44;2.38;;;1.60;;
72891;SDS011;61032;50.782;6.818;2022-11-18T04:14:44;5.38;;;1.95;;
72891;SDS011;61032;50.782;6.818;2022-11-18T04:15:47;5.28;;;1.63;;
72891;SDS011;61032;50.782;6.818;2022-11-18T04:16:49;3.88;;;2.00;;
72891;SDS011;61032;50.782;6.818;2022-11-18T04:17:54;3.70;;;1.83;;
72891;SDS011;61032;50.782;6.818;2022-11-18T04:18:54;4.07;;;1.73;;
72891;SDS011;61032;50.782;6.818;2022-11-18T04:19:54;2.95;;;2.13;;
72891;SDS011;61032;50.782;6.818;2022-11-18T04:20:55;2.55;;;1.63;;
72891;SDS011;61032;50.782;6.818;2022-11-18T04:21:55;1.98;;;1.70;;
72891;SDS011;61032;50.782;6.818;2022-11-18T04:22:55;4.32;;;1.58;;
72891;SDS011;61032;50.782;6.818;2022-11-18T04:23:56;5.43;;;1.55;;
72891;SDS011;61032;50.782;6.818;2022-11-18T04:24:56;2.55;;;1.50;;
72891;SDS011;61032;50.782;6.818;2022-11-18T04:25:56;4.97;;;1.95;;
72891;SDS011;61032;50.782;6.818;2022-11-18T04:26:57;3.92;;;1.50;;
72891;SDS011;61032;50.782;6.818;2022-11-18T04:27:57;3.58;;;1.83;;
72891;SDS011;61032;50.782;6.818;2022-11-18T04:28:57;3.92;;;2.17;;
72891;SDS011;61032;50.782;6.818;2022-11-18T04:29:58;4.53;;;1.88;;
72891;SDS011;61032;50.782;6.818;2022-11-18T04:30:58;3.20;;;2.00;;
72891;SDS011;61032;50.782;6.818;2022-11-18T04:32:01;2.38;;;2.15;;
72891;SDS011;61032;50.782;6.818;2022-11-18T04:33:02;2.65;;;1.52;;
72891;SDS011;61032;50.782;6.818;2022-11-18T04:34:04;3.35;;;1.88;;
72891;SDS011;61032;50.782;6.818;2022-11-18T04:35:04;2.95;;;1.45;;
72891;SDS011;61032;50.782;6.818;2022-11-18T04:36:05;2.47;;;1.73;;
72891;SDS011;61032;50.782;6.818;2022-11-18T04:37:05;4.07;;;2.15;;
72891;SDS011;61032;50.782;6.818;2022-11-18T04:38:05;4.85;;;2.80;;
72891;SDS011;61032;50.782;6.818;2022-11-18T04:39:06;4.10;;;2.72;;
72891;SDS011;61032;50.782;6.818;2022-11-18T04:40:06;4.45;;;2.45;;
72891;SDS011;61032;50.782;6.818;2022-11-18T04:41:07;5.10;;;2.28;;
72891;SDS011;61032;50.782;6.818;2022-11-18T04:42:08;4.40;;;2.10;;
72891;SDS011;61032;50.782;6.818;2022-11-18T04:43:08;4.60;;;2.42;;
72891;SDS011;61032;50.782;6.818;2022-11-18T04:44:08;2.42;;;1.88;;
72891;SDS011;61032;50.782;6.818;2022-11-18T04:45:11;4.03;;;2.28;;
72891;SDS011;61032;50.782;6.818;2022-11-18T04:46:12;2.97;;;1.70;;
72891;SDS011;61032;50.782;6.818;2022-11-18T04:47:12;4.53;;;1.92;;
72891;SDS011;61032;50.782;6.818;2022-11-18T04:48:13;3.30;;;1.80;;
72891;SDS011;61032;50.782;6.818;2022-11-18T04:49:13;3.67;;;2.33;;
72891;SDS011;61032;50.782;6.818;2022-11-18T04:50:14;2.40;;;1.55;;
72891;SDS011;61032;50.782;6.818;2022-11-18T04:51:14;4.05;;;1.98;;
72891;SDS011;61032;50.782;6.818;2022-11-18T04:52:14;3.40;;;1.88;;
72891;SDS011;61032;50.782;6.818;2022-11-18T04:53:15;4.47;;;2.17;;
72891;SDS011;61032;50.782;6.818;2022-11-18T04:54:15;4.93;;;2.15;;
72891;SDS011;61032;50.782;6.818;2022-11-18T04:55:16;7.68;;;2.72;;
72891;SDS011;61032;50.782;6.818;2022-11-18T04:56:17;4.38;;;1.83;;
72891;SDS011;61032;50.782;6.818;2022-11-18T04:57:17;4.25;;;2.40;;
72891;SDS011;61032;50.782;6.818;2022-11-18T04:58:17;4.25;;;1.95;;
72891;SDS011;61032;50.782;6.818;2022-11-18T04:59:19;4.80;;;2.75;;
72891;SDS011;61032;50.782;6.818;2022-11-18T05:00:21;5.03;;;2.50;;
72891;SDS011;61032;50.782;6.818;2022-11-18T05:01:21;5.82;;;3.50;;
72891;SDS011;61032;50.782;6.818;2022-11-18T05:02:21;10.90;;;4.70;;
72891;SDS011;61032;50.782;6.818;2022-11-18T05:03:21;8.13;;;5.70;;
72891;SDS011;61032;50.782;6.818;2022-11-18T05:04:23;6.25;;;4.05;;
72891;SDS011;61032;50.782;6.818;2022-11-18T05:05:25;6.03;;;3.72;;
72891;SDS011;61032;50.782;6.818;2022-11-18T05:06:25;8.10;;;3.97;;
72891;SDS011;61032;50.782;6.818;2022-11-18T05:07:25;8.73;;;4.03;;
72891;SDS011;61032;50.782;6.818;2022-11-18T05:08:26;7.32;;;4.07;;
72891;SDS011;61032;50.782;6.818;2022-11-18T05:09:26;6.03;;;4.28;;
72891;SDS011;61032;50.782;6.818;2022-11-18T05:10:27;6.78;;;4.15;;
72891;SDS011;61032;50.782;6.818;2022-11-18T05:11:27;5.88;;;4.78;;
72891;SDS011;61032;50.782;6.818;2022-11-18T05:12:46;8.40;;;4.40;;
72891;SDS011;61032;50.782;6.818;2022-11-18T05:13:50;8.95;;;5.30;;
72891;SDS011;61032;50.782;6.818;2022-11-18T05:14:50;10.27;;;7.20;;
72891;SDS011;61032;50.782;6.818;2022-11-18T05:15:51;13.82;;;8.45;;
72891;SDS011;61032;50.782;6.818;2022-11-18T05:16:51;10.70;;;7.63;;
72891;SDS011;61032;50.782;6.818;2022-11-18T05:17:52;9.13;;;5.90;;
72891;SDS011;61032;50.782;6.818;2022-11-18T05:18:52;10.15;;;6.55;;
72891;SDS011;61032;50.782;6.818;2022-11-18T05:19:52;12.45;;;6.80;;
72891;SDS011;61032;50.782;6.818;2022-11-18T05:20:53;10.02;;;6.43;;
72891;SDS011;61032;50.782;6.818;2022-11-18T05:21:53;8.25;;;4.93;;
72891;SDS011;61032;50.782;6.818;2022-11-18T05:22:53;7.13;;;5.18;;
72891;SDS011;61032;50.782;6.818;2022-11-18T05:23:53;6.80;;;3.85;;
72891;SDS011;61032;50.782;6.818;2022-11-18T05:24:54;6.97;;;4.28;;
72891;SDS011;61032;50.782;6.818;2022-11-18T05:25:54;6.15;;;3.55;;
72891;SDS011;61032;50.782;6.818;2022-11-18T05:26:54;8.93;;;3.13;;
72891;SDS011;61032;50.782;6.818;2022-11-18T05:27:55;5.70;;;3.03;;
72891;SDS011;61032;50.782;6.818;2022-11-18T05:28:55;5.07;;;3.13;;
72891;SDS011;61032;50.782;6.818;2022-11-18T05:29:56;7.85;;;3.20;;
72891;SDS011;61032;50.782;6.818;2022-11-18T05:30:56;3.70;;;2.72;;
72891;SDS011;61032;50.782;6.818;2022-11-18T05:31:56;6.45;;;2.30;;
72891;SDS011;61032;50.782;6.818;2022-11-18T05:32:56;4.45;;;2.83;;
72891;SDS011;61032;50.782;6.818;2022-11-18T05:33:57;5.70;;;2.33;;
72891;SDS011;61032;50.782;6.818;2022-11-18T05:34:57;6.55;;;2.75;;
72891;SDS011;61032;50.782;6.818;2022-11-18T05:36:01;6.40;;;2.80;;
72891;SDS011;61032;50.782;6.818;2022-11-18T05:37:02;5.70;;;3.13;;
72891;SDS011;61032;50.782;6.818;2022-11-18T05:38:02;5.30;;;2.30;;
72891;SDS011;61032;50.782;6.818;2022-11-18T05:39:03;6.20;;;2.42;;
72891;SDS011;61032;50.782;6.818;2022-11-18T05:40:04;8.27;;;2.05;;
72891;SDS011;61032;50.782;6.818;2022-11-18T05:41:05;6.55;;;2.50;;
72891;SDS011;61032;50.782;6.818;2022-11-18T05:42:06;5.68;;;2.03;;
72891;SDS011;61032;50.782;6.818;2022-11-18T05:43:25;3.80;;;2.85;;
72891;SDS011;61032;50.782;6.818;2022-11-18T05:44:26;7.85;;;3.88;;
72891;SDS011;61032;50.782;6.818;2022-11-18T05:45:26;10.70;;;7.22;;
72891;SDS011;61032;50.782;6.818;2022-11-18T05:46:27;18.60;;;10.30;;
72891;SDS011;61032;50.782;6.818;2022-11-18T05:47:28;16.92;;;9.60;;
72891;SDS011;61032;50.782;6.818;2022-11-18T05:48:48;19.90;;;12.70;;
72891;SDS011;61032;50.782;6.818;2022-11-18T05:49:48;27.90;;;13.10;;
72891;SDS011;61032;50.782;6.818;2022-11-18T05:50:49;25.70;;;14.27;;
72891;SDS011;61032;50.782;6.818;2022-11-18T05:51:52;24.35;;;13.30;;
72891;SDS011;61032;50.782;6.818;2022-11-18T05:52:52;20.42;;;10.93;;
72891;SDS011;61032;50.782;6.818;2022-11-18T05:53:52;21.15;;;8.70;;
72891;SDS011;61032;50.782;6.818;2022-11-18T05:54:54;14.68;;;5.78;;
72891;SDS011;61032;50.782;6.818;2022-11-18T05:57:14;11.02;;;6.90;;
72891;SDS011;61032;50.782;6.818;2022-11-18T05:58:14;14.07;;;7.15;;
72891;SDS011;61032;50.782;6.818;2022-11-18T05:59:14;13.88;;;8.32;;
72891;SDS011;61032;50.782;6.818;2022-11-18T06:00:15;12.73;;;7.55;;
72891;SDS011;61032;50.782;6.818;2022-11-18T06:01:18;10.05;;;6.40;;
72891;SDS011;61032;50.782;6.818;2022-11-18T06:02:25;8.88;;;5.25;;
72891;SDS011;61032;50.782;6.818;2022-11-18T06:03:29;10.50;;;5.20;;
72891;SDS011;61032;50.782;6.818;2022-11-18T06:04:42;9.38;;;6.47;;
72891;SDS011;61032;50.782;6.818;2022-11-18T06:05:45;10.20;;;4.70;;
72891;SDS011;61032;50.782;6.818;2022-11-18T06:06:47;8.20;;;3.88;;
72891;SDS011;61032;50.782;6.818;2022-11-18T06:07:49;9.32;;;3.83;;
72891;SDS011;61032;50.782;6.818;2022-11-18T06:09:57;6.57;;;4.15;;
72891;SDS011;61032;50.782;6.818;2022-11-18T06:11:59;6.78;;;2.95;;
72891;SDS011;61032;50.782;6.818;2022-11-18T06:13:04;3.85;;;2.65;;
72891;SDS011;61032;50.782;6.818;2022-11-18T06:14:13;7.43;;;3.05;;
72891;SDS011;61032;50.782;6.818;2022-11-18T06:15:19;7.45;;;3.47;;
72891;SDS011;61032;50.782;6.818;2022-11-18T06:16:23;7.78;;;2.53;;
72891;SDS011;61032;50.782;6.818;2022-11-18T06:17:28;7.45;;;2.60;;
72891;SDS011;61032;50.782;6.818;2022-11-18T06:18:34;5.30;;;2.30;;
72891;SDS011;61032;50.782;6.818;2022-11-18T06:19:35;5.93;;;3.10;;
72891;SDS011;61032;50.782;6.818;2022-11-18T06:20:35;7.85;;;2.30;;
72891;SDS011;61032;50.782;6.818;2022-11-18T06:21:38;6.70;;;3.00;;
72891;SDS011;61032;50.782;6.818;2022-11-18T06:22:38;9.35;;;3.33;;
72891;SDS011;61032;50.782;6.818;2022-11-18T06:23:39;6.10;;;3.78;;
72891;SDS011;61032;50.782;6.818;2022-11-18T06:24:41;8.13;;;3.47;;
72891;SDS011;61032;50.782;6.818;2022-11-18T06:25:43;5.10;;;2.83;;
72891;SDS011;61032;50.782;6.818;2022-11-18T06:26:43;8.40;;;2.85;;
72891;SDS011;61032;50.782;6.818;2022-11-18T06:27:45;5.07;;;3.38;;
72891;SDS011;61032;50.782;6.818;2022-11-18T06:28:48;5.93;;;2.90;;
72891;SDS011;61032;50.782;6.818;2022-11-18T06:29:48;6.80;;;3.75;;
72891;SDS011;61032;50.782;6.818;2022-11-18T06:30:48;5.60;;;4.45;;
72891;SDS011;61032;50.782;6.818;2022-11-18T06:31:49;6.32;;;3.70;;
72891;SDS011;61032;50.782;6.818;2022-11-18T06:32:49;8.45;;;3.47;;
72891;SDS011;61032;50.782;6.818;2022-11-18T06:33:49;4.38;;;2.30;;
72891;SDS011;61032;50.782;6.818;2022-11-18T06:34:50;6.07;;;3.47;;
72891;SDS011;61032;50.782;6.818;2022-11-18T06:35:50;4.45;;;3.10;;
72891;SDS011;61032;50.782;6.818;2022-11-18T06:36:50;4.82;;;2.50;;
72891;SDS011;61032;50.782;6.818;2022-11-18T06:37:51;7.78;;;3.20;;
72891;SDS011;61032;50.782;6.818;2022-11-18T06:38:51;6.15;;;2.85;;
72891;SDS011;61032;50.782;6.818;2022-11-18T06:39:51;5.82;;;2.85;;
72891;SDS011;61032;50.782;6.818;2022-11-18T06:40:52;7.22;;;3.10;;
72891;SDS011;61032;50.782;6.818;2022-11-18T06:41:52;5.63;;;2.65;;
72891;SDS011;61032;50.782;6.818;2022-11-18T06:42:53;5.35;;;3.15;;
72891;SDS011;61032;50.782;6.818;2022-11-18T06:44:12;5.35;;;2.33;;
72891;SDS011;61032;50.782;6.818;2022-11-18T06:45:13;8.02;;;3.58;;
72891;SDS011;61032;50.782;6.818;2022-11-18T06:46:15;4.43;;;2.20;;
72891;SDS011;61032;50.782;6.818;2022-11-18T06:47:35;5.72;;;2.92;;
72891;SDS011;61032;50.782;6.818;2022-11-18T06:48:35;6.30;;;2.95;;
72891;SDS011;61032;50.782;6.818;2022-11-18T06:49:35;8.45;;;2.70;;
72891;SDS011;61032;50.782;6.818;2022-11-18T06:50:35;6.70;;;2.42;;
72891;SDS011;61032;50.782;6.818;2022-11-18T06:51:36;8.57;;;3.30;;
72891;SDS011;61032;50.782;6.818;2022-11-18T06:52:36;8.30;;;2.45;;